This is the latest recevied weather packets stored in our database for station/object KI4NG. If no packets are shown the sender has not sent any weather packets the latest 10 day(s).
| Time | Temp. | Humidity | Pressure | Rain* | Wind** | Luminosity | Snow |
|---|---|---|---|---|---|---|---|
| 1777232988 | 22.78° C | 54% | 1015.8 hPa | 0 mm | - | 559 W/m² | - |
| 1777232685 | 22.78° C | 54% | 1015.7 hPa | 0 mm | - | 573 W/m² | - |
| 1777232384 | 23.33° C | 53% | 1015.7 hPa | 0 mm | - | 535 W/m² | - |
| 1777232080 | 22.78° C | 53% | 1015.6 hPa | 0 mm | - | 672 W/m² | - |
| 1777231777 | 22.78° C | 58% | 1015.8 hPa | 0 mm | - | 688 W/m² | - |
| 1777231474 | 22.78° C | 54% | 1015.8 hPa | 0 mm | - | 698 W/m² | - |
| 1777231170 | 22.78° C | 56% | 1016 hPa | 0 mm | - | 705 W/m² | - |
| 1777230866 | 22.78° C | 55% | 1015.9 hPa | 0 mm | - | 699 W/m² | - |
| 1777230561 | 22.78° C | 58% | 1016.1 hPa | 0 mm | - | 708 W/m² | - |
| 1777230257 | 22.78° C | 54% | 1015.8 hPa | 0 mm | - | 690 W/m² | - |
| 1777229955 | 22.78° C | 55% | 1016.1 hPa | 0 mm | - | 707 W/m² | - |
| 1777229650 | 21.67° C | 55% | 1016 hPa | 0 mm | - | 695 W/m² | - |
| 1777229347 | 22.22° C | 57% | 1016.4 hPa | 0 mm | - | 674 W/m² | - |
| 1777229045 | 22.22° C | 58% | 1016.2 hPa | 0 mm | - | 721 W/m² | - |
| 1777228741 | 22.22° C | 59% | 1016.2 hPa | 0 mm | - | 717 W/m² | - |
| 1777228437 | 22.22° C | 57% | 1016.2 hPa | 0 mm | - | 706 W/m² | - |
| 1777228133 | 22.22° C | 61% | 1016.4 hPa | 0 mm | - | 724 W/m² | - |
| 1777227831 | 21.67° C | 62% | 1016.1 hPa | 0 mm | - | 672 W/m² | - |
| 1777227529 | 22.22° C | 60% | 1016 hPa | 0 mm | - | 596 W/m² | - |
| 1777227224 | 22.22° C | 60% | 1016.2 hPa | 0 mm | - | 715 W/m² | - |
| 1777226922 | 21.67° C | 66% | 1016.4 hPa | 0 mm | - | 748 W/m² | - |
| 1777226619 | 21.11° C | 67% | 1016.5 hPa | 0 mm | - | 780 W/m² | - |
| 1777226316 | 21.67° C | 67% | 1016.5 hPa | 0 mm | - | 716 W/m² | - |
| 1777226012 | 21.67° C | 66% | 1016.5 hPa | 0 mm | - | 743 W/m² | - |
| 1777225707 | 21.11° C | 67% | 1016.6 hPa | 0 mm | - | 779 W/m² | - |
* Rain latest hour (hover to see other rain measurements)
** Current wind speed in m/s (hover to see current wind gust speed)